createdAt,value
2019-02-12T00:03:25.008Z,90.10
2019-02-12T00:05:53.991Z,89.10
2019-02-12T00:08:23.018Z,89.00
2019-02-12T00:10:52.122Z,88.90
2019-02-12T00:13:21.049Z,89.50
2019-02-12T00:15:50.075Z,89.50
2019-02-12T00:18:20.503Z,89.30
2019-02-12T00:20:49.704Z,89.20
2019-02-12T00:23:18.763Z,89.20
2019-02-12T00:25:49.458Z,88.40
2019-02-12T00:28:18.442Z,88.90
2019-02-12T00:30:49.070Z,89.20
2019-02-12T00:33:18.087Z,89.10
2019-02-12T00:35:47.171Z,89.30
2019-02-12T00:38:16.201Z,89.10
2019-02-12T00:40:45.269Z,89.50
2019-02-12T00:43:14.330Z,89.60
2019-02-12T00:45:43.368Z,89.00
2019-02-12T00:48:12.368Z,88.80
2019-02-12T00:50:41.374Z,89.60
2019-02-12T00:53:10.345Z,90.00
2019-02-12T00:55:42.080Z,90.20
2019-02-12T00:58:10.905Z,90.20
2019-02-12T01:00:45.175Z,90.20
2019-02-12T01:03:16.313Z,90.10
2019-02-12T01:05:45.273Z,90.10
2019-02-12T01:08:28.270Z,89.60
2019-02-12T01:10:57.261Z,89.60
2019-02-12T01:13:26.173Z,90.00
2019-02-12T01:15:55.329Z,90.00
2019-02-12T01:18:24.171Z,89.40
2019-02-12T01:20:53.195Z,89.20
2019-02-12T01:23:22.193Z,89.90
2019-02-12T01:25:51.177Z,89.70
2019-02-12T01:28:20.328Z,89.80
2019-02-12T01:30:49.762Z,89.20
2019-02-12T01:33:18.967Z,89.40
2019-02-12T01:35:47.807Z,89.60
2019-02-12T01:38:16.947Z,89.90
2019-02-12T01:40:46.433Z,89.90
2019-02-12T01:43:15.379Z,89.40
2019-02-12T01:45:44.368Z,89.20
2019-02-12T01:48:14.055Z,88.90
2019-02-12T01:50:43.089Z,88.60
2019-02-12T01:53:12.081Z,89.10
2019-02-12T01:55:41.005Z,88.90
2019-02-12T01:58:11.583Z,89.10
2019-02-12T02:00:43.514Z,89.00
2019-02-12T02:03:15.866Z,89.00
2019-02-12T02:05:44.931Z,88.60
2019-02-12T02:08:14.012Z,87.80
2019-02-12T02:10:44.934Z,88.00
2019-02-12T02:13:13.804Z,88.00
2019-02-12T02:15:42.943Z,88.30
2019-02-12T02:18:12.188Z,89.10
2019-02-12T02:20:43.965Z,89.40
2019-02-12T02:23:13.048Z,89.30
2019-02-12T02:25:43.432Z,88.50
2019-02-12T02:28:13.257Z,88.70
2019-02-12T02:30:42.166Z,88.50
2019-02-12T02:33:11.431Z,89.30
2019-02-12T02:35:40.551Z,89.70
2019-02-12T02:38:09.699Z,89.80
2019-02-12T02:40:38.564Z,89.70
2019-02-12T02:43:09.452Z,89.20
2019-02-12T02:45:38.378Z,89.10
2019-02-12T02:48:09.165Z,89.50
2019-02-12T02:50:38.310Z,88.70
2019-02-12T02:53:08.925Z,88.70
2019-02-12T02:55:37.913Z,88.80
2019-02-12T02:58:07.048Z,88.70
2019-02-12T03:00:36.004Z,88.40
2019-02-12T03:03:05.056Z,88.40
2019-02-12T03:05:34.062Z,87.30
2019-02-12T03:08:02.900Z,87.70
2019-02-12T03:10:32.145Z,88.40
2019-02-12T03:13:04.180Z,89.40
2019-02-12T03:15:33.437Z,89.80
2019-02-12T03:18:02.540Z,90.10
2019-02-12T03:20:31.464Z,90.10
2019-02-12T03:23:00.599Z,90.10
2019-02-12T03:25:29.551Z,90.20
2019-02-12T03:27:58.397Z,90.30
2019-02-12T03:30:27.747Z,90.30
2019-02-12T03:32:56.718Z,90.00
2019-02-12T03:35:25.522Z,89.60
2019-02-12T03:37:54.787Z,89.90
2019-02-12T03:40:23.855Z,90.10
2019-02-12T03:42:52.785Z,90.00
2019-02-12T03:45:21.705Z,90.20
2019-02-12T03:47:50.764Z,89.70
2019-02-12T03:50:19.864Z,89.00
2019-02-12T03:52:49.278Z,87.80
2019-02-12T03:55:18.696Z,87.50
2019-02-12T03:57:47.815Z,88.30
2019-02-12T04:00:17.366Z,88.90
2019-02-12T04:03:15.739Z,89.20
2019-02-12T04:05:47.879Z,89.40
2019-02-12T04:08:20.548Z,89.00
2019-02-12T04:10:48.050Z,88.90
2019-02-12T04:13:20.150Z,88.60
2019-02-12T04:15:49.333Z,88.40
2019-02-12T04:18:19.342Z,88.10
2019-02-12T04:20:48.535Z,87.80
2019-02-12T04:23:19.961Z,88.10
2019-02-12T04:25:49.654Z,88.40
2019-02-12T04:28:20.309Z,89.10
2019-02-12T04:30:49.272Z,89.30
2019-02-12T04:33:18.762Z,88.60
2019-02-12T04:35:47.767Z,88.10
2019-02-12T04:38:17.172Z,87.80
2019-02-12T04:40:46.348Z,88.10
2019-02-12T04:43:15.412Z,88.00
2019-02-12T04:45:44.580Z,86.90
2019-02-12T04:48:13.696Z,85.90
2019-02-12T04:50:42.585Z,85.70
2019-02-12T04:53:13.060Z,85.50
2019-02-12T04:55:42.069Z,86.40
2019-02-12T04:58:11.242Z,87.00
2019-02-12T05:00:40.310Z,87.20
2019-02-12T05:03:09.397Z,87.50
2019-02-12T05:05:38.479Z,86.90
2019-02-12T05:08:07.529Z,86.50
2019-02-12T05:10:54.494Z,86.70
2019-02-12T05:13:23.637Z,86.50
2019-02-12T05:15:52.658Z,86.40
2019-02-12T05:18:23.781Z,85.90
2019-02-12T05:20:52.742Z,85.00
2019-02-12T05:23:23.429Z,84.70
2019-02-12T05:25:53.919Z,85.70
2019-02-12T05:28:22.877Z,85.60
2019-02-12T05:30:52.272Z,86.00
2019-02-12T05:33:23.935Z,85.70
2019-02-12T05:35:53.029Z,85.80
2019-02-12T05:38:22.001Z,85.50
2019-02-12T05:40:51.060Z,84.80
2019-02-12T05:43:20.488Z,84.50
2019-02-12T05:45:49.819Z,84.80
2019-02-12T05:48:19.512Z,85.00
2019-02-12T05:50:52.530Z,84.60
2019-02-12T05:53:21.475Z,85.00
2019-02-12T05:55:50.906Z,83.90
2019-02-12T05:58:20.010Z,83.20
2019-02-12T06:00:49.229Z,82.80
2019-02-12T06:03:18.738Z,83.10
2019-02-12T06:05:47.950Z,82.40
2019-02-12T06:08:16.835Z,82.30
2019-02-12T06:10:48.440Z,82.30
2019-02-12T06:13:17.556Z,83.50
2019-02-12T06:15:46.432Z,82.90
2019-02-12T06:18:15.575Z,83.60
2019-02-12T06:20:44.458Z,84.20
2019-02-12T06:23:13.520Z,84.10
2019-02-12T06:25:42.970Z,83.60
2019-02-12T06:28:16.471Z,83.00
2019-02-12T06:30:48.755Z,83.00
2019-02-12T06:33:17.957Z,82.80
2019-02-12T06:35:47.054Z,83.00
2019-02-12T06:38:16.128Z,83.00
2019-02-12T06:40:45.249Z,82.90
2019-02-12T06:43:14.192Z,83.60
2019-02-12T06:45:43.026Z,84.20
2019-02-12T06:48:12.473Z,84.30
2019-02-12T06:50:41.224Z,83.60
2019-02-12T06:53:12.522Z,84.30
2019-02-12T06:55:40.962Z,84.60
2019-02-12T06:58:09.890Z,84.80
2019-02-12T07:00:38.828Z,84.70
2019-02-12T07:03:18.987Z,84.80
2019-02-12T07:06:27.531Z,85.00
2019-02-12T07:08:59.417Z,83.80
2019-02-12T07:11:50.801Z,84.20
2019-02-12T07:14:28.771Z,83.20
2019-02-12T07:17:32.293Z,82.30
2019-02-12T07:20:40.526Z,82.70
2019-02-12T07:23:29.310Z,83.00
2019-02-12T07:26:21.119Z,82.80
2019-02-12T07:28:52.878Z,81.80
2019-02-12T07:31:46.385Z,81.30
2019-02-12T07:34:24.583Z,81.00
2019-02-12T07:37:08.973Z,79.30
2019-02-12T07:39:46.891Z,80.10
2019-02-12T07:42:33.998Z,81.10
2019-02-12T07:45:38.383Z,80.50
2019-02-12T07:48:13.145Z,80.90
2019-02-12T07:51:02.934Z,81.30
2019-02-12T07:53:34.931Z,79.90
2019-02-12T07:56:24.774Z,80.20
2019-02-12T07:59:11.969Z,80.20
2019-02-12T08:05:15.445Z,79.20
2019-02-12T08:08:07.253Z,79.00
2019-02-12T08:10:54.646Z,79.40
2019-02-12T08:13:41.427Z,78.00
2019-02-12T08:16:23.019Z,78.70
2019-02-12T08:19:19.419Z,79.10
2019-02-12T08:22:10.015Z,78.50
2019-02-12T08:24:50.914Z,79.30
2019-02-12T08:27:29.014Z,79.50
2019-02-12T08:30:34.229Z,79.60
2019-02-12T08:33:27.942Z,79.60
2019-02-12T08:36:09.099Z,79.50
2019-02-12T08:38:55.296Z,78.60
2019-02-12T08:41:27.612Z,79.30
2019-02-12T08:44:08.211Z,79.50
2019-02-12T08:47:13.510Z,79.50
2019-02-12T08:50:14.869Z,75.30
2019-02-12T08:53:05.088Z,76.40
2019-02-12T08:55:52.151Z,78.70
2019-02-12T08:58:38.598Z,77.00
2019-02-12T09:01:34.362Z,77.60
2019-02-12T09:04:20.402Z,79.50
2019-02-12T09:06:58.421Z,79.60
2019-02-12T09:09:47.188Z,79.80
2019-02-12T09:12:43.690Z,77.40
2019-02-12T09:15:50.010Z,77.50
2019-02-12T09:18:31.937Z,78.60
2019-02-12T09:21:06.469Z,78.70
2019-02-12T09:24:07.324Z,79.00
2019-02-12T09:27:02.367Z,78.50
2019-02-12T09:29:46.266Z,77.80
2019-02-12T09:32:34.458Z,75.10
2019-02-12T09:35:30.397Z,75.80
2019-02-12T09:38:24.643Z,75.40
2019-02-12T09:41:14.225Z,77.50
2019-02-12T09:44:13.498Z,77.10
2019-02-12T09:46:48.248Z,76.80
2019-02-12T09:49:31.844Z,75.50
2019-02-12T09:52:27.378Z,75.70
2019-02-12T09:55:01.923Z,77.10
2019-02-12T09:57:56.855Z,75.70
2019-02-12T10:00:34.775Z,77.70
2019-02-12T10:03:23.731Z,79.10
2019-02-12T10:06:21.484Z,78.70
2019-02-12T10:09:14.495Z,75.40
2019-02-12T10:12:07.227Z,74.70
2019-02-12T10:14:58.759Z,75.90
2019-02-12T10:17:48.506Z,75.80
2019-02-12T10:20:26.685Z,75.40
2019-02-12T10:22:58.545Z,76.20
2019-02-12T10:25:30.749Z,75.70
2019-02-12T10:28:05.157Z,76.40
2019-02-12T10:30:46.179Z,77.10
2019-02-12T10:33:16.049Z,77.10
2019-02-12T10:35:45.036Z,77.50
2019-02-12T10:40:42.801Z,74.50
2019-02-12T10:43:11.815Z,73.60
2019-02-12T10:45:40.848Z,74.50
2019-02-12T10:48:09.690Z,73.20
2019-02-12T10:50:39.035Z,73.20
2019-02-12T10:53:09.019Z,73.50
2019-02-12T10:55:42.563Z,74.40
2019-02-12T10:58:12.101Z,75.80
2019-02-12T11:00:41.049Z,76.20
2019-02-12T11:03:10.174Z,75.00
2019-02-12T11:05:40.002Z,75.30
2019-02-12T11:08:09.065Z,75.50
2019-02-12T11:10:38.371Z,74.60
2019-02-12T11:13:07.537Z,75.30
2019-02-12T11:15:36.543Z,75.40
2019-02-12T11:18:05.433Z,73.60
2019-02-12T11:20:34.674Z,73.10
2019-02-12T11:23:05.326Z,73.10
2019-02-12T11:25:34.115Z,73.10
2019-02-12T11:28:09.339Z,71.90
2019-02-12T11:30:34.068Z,71.40
2019-02-12T11:33:03.343Z,71.00
2019-02-12T11:35:32.570Z,70.40
2019-02-12T11:38:01.426Z,70.20
2019-02-12T11:40:30.534Z,70.10
2019-02-12T11:43:02.965Z,71.20
2019-02-12T11:45:31.973Z,71.80
2019-02-12T11:48:00.878Z,71.30
2019-02-12T11:50:30.023Z,71.80
2019-02-12T11:52:59.229Z,71.80
2019-02-12T11:55:28.059Z,71.40
2019-02-12T11:57:57.197Z,70.80
2019-02-12T12:00:30.457Z,69.40
2019-02-12T12:03:01.547Z,68.80
2019-02-12T12:05:30.425Z,70.50
2019-02-12T12:08:01.666Z,70.80
2019-02-12T12:10:30.839Z,71.40
2019-02-12T12:12:59.723Z,71.20
2019-02-12T12:15:30.630Z,70.80
2019-02-12T12:18:00.226Z,68.60
2019-02-12T12:20:29.172Z,68.80
2019-02-12T12:22:58.342Z,67.20
2019-02-12T12:25:27.411Z,67.30
2019-02-12T12:27:56.263Z,67.60
2019-02-12T12:30:25.264Z,68.20
2019-02-12T12:32:54.440Z,68.30
2019-02-12T12:35:23.577Z,69.70
2019-02-12T12:37:52.372Z,69.20
2019-02-12T12:40:21.372Z,70.20
2019-02-12T12:42:50.959Z,69.90
2019-02-12T12:45:21.288Z,68.50
2019-02-12T12:47:50.988Z,68.30
2019-02-12T12:50:19.861Z,69.20
2019-02-12T12:52:50.228Z,68.70
2019-02-12T12:55:19.474Z,69.10
2019-02-12T12:57:49.829Z,70.40
2019-02-12T13:00:18.920Z,70.50
2019-02-12T13:02:48.291Z,71.40
2019-02-12T13:05:17.220Z,72.20
2019-02-12T13:07:46.253Z,71.60
2019-02-12T13:10:16.926Z,70.20
2019-02-12T13:12:45.857Z,68.40
2019-02-12T13:15:15.630Z,69.70
2019-02-12T13:17:44.837Z,67.90
2019-02-12T13:20:16.138Z,68.50
2019-02-12T13:22:44.992Z,67.30
2019-02-12T13:25:16.629Z,66.40
2019-02-12T13:27:45.693Z,65.80
2019-02-12T13:30:17.285Z,68.10
2019-02-12T13:32:46.400Z,67.30
2019-02-12T13:35:23.560Z,67.30
2019-02-12T13:37:52.416Z,66.90
2019-02-12T13:40:21.529Z,67.20
2019-02-12T13:42:52.171Z,65.20
2019-02-12T13:45:21.270Z,66.90
2019-02-12T13:47:50.244Z,62.90
2019-02-12T13:50:19.489Z,64.70
2019-02-12T13:52:50.388Z,66.00
2019-02-12T13:55:19.899Z,63.80
2019-02-12T13:57:51.301Z,63.70
2019-02-12T14:00:20.175Z,64.20
2019-02-12T14:02:49.514Z,65.30
2019-02-12T14:05:20.954Z,66.90
2019-02-12T14:07:50.190Z,66.80
2019-02-12T14:10:19.335Z,68.30
2019-02-12T14:12:49.171Z,68.70
2019-02-12T14:15:18.202Z,68.90
2019-02-12T14:17:47.073Z,68.20
2019-02-12T14:20:17.591Z,69.20
2019-02-12T14:22:46.666Z,69.30
2019-02-12T14:25:16.510Z,65.80
2019-02-12T14:27:45.707Z,65.90
2019-02-12T14:30:16.503Z,67.20
2019-02-12T14:32:45.445Z,64.90
2019-02-12T14:35:14.489Z,65.80
2019-02-12T14:37:43.381Z,65.60
2019-02-12T14:40:15.979Z,66.40
2019-02-12T14:42:50.657Z,66.50
2019-02-12T14:45:21.883Z,67.00
2019-02-12T14:47:50.793Z,67.80
2019-02-12T14:50:23.029Z,67.00
2019-02-12T14:52:51.847Z,66.40
2019-02-12T14:55:23.713Z,66.10
2019-02-12T14:57:54.714Z,68.00
2019-02-12T15:00:23.829Z,68.10
2019-02-12T15:02:52.644Z,66.40
2019-02-12T15:05:21.800Z,66.80
2019-02-12T15:07:52.262Z,66.40
2019-02-12T15:10:21.505Z,65.50
2019-02-12T15:12:52.430Z,67.60
2019-02-12T15:15:21.340Z,65.80
2019-02-12T15:17:50.538Z,67.00
2019-02-12T15:20:21.193Z,69.00
2019-02-12T15:22:52.917Z,69.80
2019-02-12T15:25:22.298Z,72.00
2019-02-12T15:27:51.319Z,70.70
2019-02-12T15:30:20.476Z,69.70
2019-02-12T15:32:49.820Z,69.70
2019-02-12T15:35:19.191Z,69.30
2019-02-12T15:37:48.201Z,70.20
2019-02-12T15:40:19.725Z,72.00
2019-02-12T15:42:48.822Z,71.10
2019-02-12T15:45:22.084Z,71.30
2019-02-12T15:47:51.210Z,70.50
2019-02-12T15:50:20.183Z,69.50
2019-02-12T15:52:49.295Z,69.50
2019-02-12T15:55:18.114Z,70.60
2019-02-12T15:57:46.952Z,71.80
2019-02-12T16:00:20.622Z,70.80
2019-02-12T16:02:49.794Z,69.90
2019-02-12T16:05:20.641Z,67.20
2019-02-12T16:07:49.422Z,69.40
2019-02-12T16:10:22.334Z,70.80
2019-02-12T16:12:51.856Z,71.00
2019-02-12T16:15:24.657Z,69.50
2019-02-12T16:17:53.959Z,70.30
2019-02-12T16:20:23.155Z,70.40
2019-02-12T16:22:52.066Z,69.20
2019-02-12T16:25:21.416Z,68.30
2019-02-12T16:27:50.412Z,67.70
2019-02-12T16:30:22.608Z,69.20
2019-02-12T16:32:54.923Z,71.10
2019-02-12T16:35:24.898Z,71.90
2019-02-12T16:37:53.788Z,70.70
2019-02-12T16:40:23.385Z,71.00
2019-02-12T16:42:52.620Z,71.70
2019-02-12T16:45:33.640Z,72.60
2019-02-12T16:48:02.818Z,74.10
2019-02-12T16:50:32.074Z,74.10
2019-02-12T16:53:02.649Z,74.80
2019-02-12T16:55:32.166Z,75.00
2019-02-12T16:58:01.055Z,74.80
2019-02-12T17:00:30.138Z,75.10
2019-02-12T17:02:59.323Z,74.40
2019-02-12T17:05:28.225Z,73.90
2019-02-12T17:07:57.333Z,73.30
2019-02-12T17:10:26.529Z,72.90
2019-02-12T17:12:55.532Z,75.20
2019-02-12T17:15:24.516Z,75.00
2019-02-12T17:17:54.586Z,74.40
2019-02-12T17:20:24.611Z,73.10
2019-02-12T17:22:53.676Z,73.90
2019-02-12T17:25:22.763Z,72.80
2019-02-12T17:27:51.731Z,75.00
2019-02-12T17:30:20.672Z,76.10
2019-02-12T17:32:49.730Z,77.20
2019-02-12T17:35:18.826Z,75.90
2019-02-12T17:37:47.668Z,76.70
2019-02-12T17:40:18.297Z,75.60
2019-02-12T17:42:47.205Z,72.50
2019-02-12T17:45:17.514Z,72.70
2019-02-12T17:47:46.486Z,70.80
2019-02-12T17:50:18.597Z,68.90
2019-02-12T17:52:47.604Z,69.90
2019-02-12T17:55:19.123Z,69.30
2019-02-12T17:57:51.559Z,67.30
2019-02-12T18:00:22.283Z,67.00
2019-02-12T18:02:51.551Z,70.30
2019-02-12T18:05:20.874Z,72.30
2019-02-12T18:07:49.792Z,73.70
2019-02-12T18:10:19.189Z,74.10
2019-02-12T18:12:48.236Z,74.20
2019-02-12T18:15:17.266Z,72.50
2019-02-12T18:17:46.794Z,72.30
2019-02-12T18:20:17.154Z,72.00
2019-02-12T18:22:46.160Z,71.40
2019-02-12T18:25:15.253Z,69.40
2019-02-12T18:27:44.120Z,68.80
2019-02-12T18:30:19.688Z,67.50
2019-02-12T18:32:49.100Z,69.70
2019-02-12T18:35:17.953Z,71.70
2019-02-12T18:37:47.121Z,70.30
2019-02-12T18:40:17.732Z,69.00
2019-02-12T18:42:46.813Z,67.30
2019-02-12T18:45:21.254Z,67.60
2019-02-12T18:47:50.419Z,67.60
2019-02-12T18:50:19.668Z,67.80
2019-02-12T18:52:48.964Z,68.40
2019-02-12T18:55:17.948Z,71.20
2019-02-12T18:57:46.890Z,69.60
2019-02-12T19:00:20.796Z,70.00
2019-02-12T19:02:49.987Z,70.20
2019-02-12T19:05:19.398Z,71.80
2019-02-12T19:07:48.457Z,71.80
2019-02-12T19:10:18.498Z,71.20
2019-02-12T19:12:47.498Z,69.50
2019-02-12T19:15:20.673Z,69.00
2019-02-12T19:18:07.758Z,68.60
2019-02-12T19:20:37.160Z,69.00
2019-02-12T19:23:06.183Z,69.10
2019-02-12T19:25:35.355Z,67.80
2019-02-12T19:28:06.104Z,68.50
2019-02-12T19:30:34.908Z,68.00
2019-02-12T19:33:06.769Z,69.10
2019-02-12T19:35:35.772Z,70.40
2019-02-12T19:38:04.728Z,69.90
2019-02-12T19:40:33.720Z,68.90
2019-02-12T19:43:02.606Z,70.00
2019-02-12T19:45:31.585Z,71.90
2019-02-12T19:48:00.700Z,72.70
2019-02-12T19:50:29.999Z,73.40
2019-02-12T19:52:59.154Z,74.80
2019-02-12T19:55:29.411Z,76.30
2019-02-12T19:57:58.664Z,78.30
2019-02-12T20:00:27.487Z,80.20
2019-02-12T20:03:00.624Z,82.00
2019-02-12T20:05:29.600Z,82.80
2019-02-12T20:07:58.692Z,84.50
2019-02-12T20:10:27.737Z,85.50
2019-02-12T20:12:56.637Z,86.70
2019-02-12T20:15:25.819Z,87.50
2019-02-12T20:17:55.027Z,88.40
2019-02-12T20:20:24.187Z,89.30
2019-02-12T20:22:53.326Z,89.80
2019-02-12T20:25:22.503Z,90.30
2019-02-12T20:27:51.495Z,90.40
2019-02-12T20:30:20.841Z,90.60
2019-02-12T20:32:49.996Z,90.80
2019-02-12T20:35:22.396Z,91.00
2019-02-12T20:37:51.766Z,91.20
2019-02-12T20:40:21.401Z,91.20
2019-02-12T20:42:50.449Z,91.40
2019-02-12T20:45:20.548Z,91.50
2019-02-12T20:47:49.712Z,91.50
2019-02-12T20:50:22.200Z,91.50
2019-02-12T20:52:51.313Z,91.60
2019-02-12T20:55:20.233Z,91.70
2019-02-12T20:57:49.398Z,91.70
2019-02-12T21:00:22.856Z,91.70
2019-02-12T21:02:52.447Z,92.00
2019-02-12T21:05:21.297Z,91.80
2019-02-12T21:07:50.109Z,91.80
2019-02-12T21:10:23.847Z,91.70
2019-02-12T21:12:52.946Z,91.80
2019-02-12T21:15:26.740Z,91.70
2019-02-12T21:17:56.034Z,91.70
2019-02-12T21:20:25.061Z,91.80
2019-02-12T21:22:54.244Z,92.00
2019-02-12T21:25:23.391Z,92.10
2019-02-12T21:27:52.421Z,92.10
2019-02-12T21:30:23.515Z,92.20
2019-02-12T21:32:52.372Z,92.30
2019-02-12T21:35:21.296Z,92.30
2019-02-12T21:37:50.517Z,92.40
2019-02-12T21:40:24.488Z,92.50
2019-02-12T21:42:53.121Z,92.60
2019-02-12T21:45:21.940Z,92.80
2019-02-12T21:47:51.140Z,92.90
2019-02-12T21:50:20.233Z,93.00
2019-02-12T21:52:49.157Z,93.10
2019-02-12T21:55:22.245Z,93.10
2019-02-12T21:57:51.290Z,93.40
2019-02-12T22:00:21.444Z,93.50
2019-02-12T22:02:51.110Z,93.80
2019-02-12T22:05:20.229Z,93.80
2019-02-12T22:07:49.364Z,93.80
2019-02-12T22:10:24.072Z,93.90
2019-02-12T22:12:52.869Z,94.10
2019-02-12T22:15:21.748Z,94.40
2019-02-12T22:17:51.195Z,94.60
2019-02-12T22:20:22.346Z,94.60
2019-02-12T22:22:51.254Z,94.70
2019-02-12T22:25:20.362Z,94.90
2019-02-12T22:27:49.361Z,95.00
2019-02-12T22:30:22.549Z,95.10
2019-02-12T22:32:51.505Z,95.30
2019-02-12T22:35:20.575Z,95.30
2019-02-12T22:37:49.958Z,95.30
2019-02-12T22:40:19.668Z,95.50
2019-02-12T22:42:48.841Z,95.50
2019-02-12T22:45:23.078Z,95.60
2019-02-12T22:47:51.942Z,95.60
2019-02-12T22:50:22.101Z,95.60
2019-02-12T22:52:51.331Z,95.70
2019-02-12T22:55:20.137Z,95.70
2019-02-12T22:57:49.763Z,95.80
2019-02-12T23:00:25.895Z,95.80
2019-02-12T23:02:54.803Z,96.00
2019-02-12T23:05:23.935Z,96.00
2019-02-12T23:07:52.924Z,95.90
2019-02-12T23:10:21.820Z,96.10
2019-02-12T23:12:52.212Z,96.10
2019-02-12T23:15:21.430Z,96.20
2019-02-12T23:17:50.642Z,96.20
2019-02-12T23:20:19.724Z,96.10
2019-02-12T23:22:51.652Z,96.20
2019-02-12T23:25:20.836Z,96.20
2019-02-12T23:27:57.217Z,96.30
2019-02-12T23:30:20.632Z,96.40
2019-02-12T23:32:49.529Z,96.40
2019-02-12T23:35:18.465Z,96.50
2019-02-12T23:37:47.736Z,96.50
2019-02-12T23:40:16.841Z,96.50
2019-02-12T23:42:45.733Z,96.50
2019-02-12T23:45:15.339Z,96.60
2019-02-12T23:47:47.483Z,96.60
2019-02-12T23:50:16.572Z,96.70
2019-02-12T23:52:45.416Z,96.70
2019-02-12T23:55:15.077Z,96.70
2019-02-12T23:57:43.990Z,96.70
